Varma — OGOE — position and weather

sailwx.info

Track history (hours):
 
Tides and Currents Weather Stations Pressure Air Temp Water Temp Dewpoint Dewpoint Depression Visibility Wind Speed Wind Dir Waves Ship Positions

Varma

Last reported at 2018-Jan-19 11:32 UTC. Time now 2018-Feb-23 02:38 UTC.
Position N 59°47' E 022°57'.
Warning: this ship's position is 34 days out of date.

Length 48 m; draft 4.2 m.

Type: Tug. MMSI: 230301000.

Date/timePositionNaut miles runAvg speedWind from/ knotsBaromVisibWave heightAir tempDewpointWater temp
2018-Jan-19 11:32N 59°47' E 022°57'2 7.7
2018-Jan-19 11:19N 59°46' E 023°01'3 8.1
2018-Jan-19 10:58N 59°44' E 023°04'4 8.0
2018-Jan-19 10:29N 59°43' E 023°12'4 8.3
2018-Jan-19 10:00N 59°43' E 023°20'4 8.2
2018-Jan-19 09:30N 59°43' E 023°28'4 8.3
2018-Jan-19 09:00N 59°45' E 023°36'4 8.4
2018-Jan-19 08:30N 59°46' E 023°44'77 7.8
2018-Jan-18 22:40N 60°13' E 026°08'3 7.8
2018-Jan-18 22:15N 60°16' E 026°12'2 9.0
2018-Jan-18 22:01N 60°17' E 026°16'4 8.5
2018-Jan-18 21:30N 60°18' E 026°24'4 8.7
2018-Jan-18 21:00N 60°20' E 026°32'4 8.8
2018-Jan-18 20:30N 60°22' E 026°40'5 9.1
2018-Jan-18 20:00N 60°23' E 026°49'4 8.3
2018-Jan-18 19:30N 60°25' E 026°56'3 5.9
2018-Jan-18 19:00N 60°28' E 026°58'1 2.3
2018-Jan-18 18:28N 60°29' E 026°57'0 0.0
2018-Jan-18 17:58N 60°29' E 026°57'0 0.0
2018-Jan-18 17:28N 60°29' E 026°57'0 0.0
2018-Jan-18 16:58N 60°29' E 026°57'0 0.0
2018-Jan-18 16:22N 60°29' E 026°57'0 0.4
2018-Jan-18 16:00N 60°29' E 026°57'0 0.6
2018-Jan-18 15:30N 60°29' E 026°57'2 3.2
2018-Jan-18 15:00N 60°28' E 026°60'4 7.1
2018-Jan-18 14:30N 60°29' E 027°07'3 6.8
2018-Jan-18 13:59N 60°32' E 027°12'0 0.0
2018-Jan-18 10:08N 60°32' E 027°12'1 3.2
2018-Jan-18 09:56N 60°31' E 027°11'2 4.2
2018-Jan-18 09:31N 60°30' E 027°09'3 5.2
2018-Jan-18 09:01N 60°27' E 027°07'2 3.1
2018-Jan-18 08:31N 60°28' E 027°04'3 5.3
2018-Jan-18 08:01N 60°27' E 026°59'4 7.2
2018-Jan-18 07:31N 60°25' E 026°54'4 7.3
2018-Jan-18 07:00N 60°23' E 026°47'4 7.2
2018-Jan-18 06:31N 60°22' E 026°41'4 7.1
2018-Jan-18 06:01N 60°20' E 026°34'4 7.0
2018-Jan-18 05:31N 60°20' E 026°27'3 6.6
2018-Jan-18 05:00N 60°21' E 026°21'4 7.9
2018-Jan-18 04:31N 60°24' E 026°17'1 1.8
2018-Jan-18 03:58N 60°25' E 026°15'0 0.0
2018-Jan-18 03:28N 60°25' E 026°15'0 0.0
2018-Jan-18 02:58N 60°25' E 026°15'0 0.0
2018-Jan-18 02:28N 60°25' E 026°15'0 0.0
2018-Jan-18 01:58N 60°25' E 026°15'0 0.0
2018-Jan-18 01:28N 60°25' E 026°15'0 0.0
2018-Jan-18 00:58N 60°25' E 026°15'0 0.0
2018-Jan-17 23:58N 60°25' E 026°15'0 0.0
2018-Jan-17 23:55N 60°25' E 026°15'  
Track history (hours):
 
Tides and Currents Weather Stations Pressure Air Temp Water Temp Dewpoint Dewpoint Depression Visibility Wind Speed Wind Dir Waves Ship Positions

Varma

Last reported at 2018-Jan-19 11:32 UTC. Time now 2018-Feb-23 02:38 UTC.
Position N 59°47' E 022°57'.
Warning: this ship's position is 34 days out of date.

Length 48 m; draft 4.2 m.

Type: Tug. MMSI: 230301000.

Date/timePositionNaut miles runAvg speedWind from/ knotsBaromVisibWave heightAir tempDewpointWater temp
2018-Jan-19 11:32N 59°47' E 022°57'2 7.7
2018-Jan-19 11:19N 59°46' E 023°01'3 8.1
2018-Jan-19 10:58N 59°44' E 023°04'4 8.0
2018-Jan-19 10:29N 59°43' E 023°12'4 8.3
2018-Jan-19 10:00N 59°43' E 023°20'4 8.2
2018-Jan-19 09:30N 59°43' E 023°28'4 8.3
2018-Jan-19 09:00N 59°45' E 023°36'4 8.4
2018-Jan-19 08:30N 59°46' E 023°44'77 7.8
2018-Jan-18 22:40N 60°13' E 026°08'3 7.8
2018-Jan-18 22:15N 60°16' E 026°12'2 9.0
2018-Jan-18 22:01N 60°17' E 026°16'4 8.5
2018-Jan-18 21:30N 60°18' E 026°24'4 8.7
2018-Jan-18 21:00N 60°20' E 026°32'4 8.8
2018-Jan-18 20:30N 60°22' E 026°40'5 9.1
2018-Jan-18 20:00N 60°23' E 026°49'4 8.3
2018-Jan-18 19:30N 60°25' E 026°56'3 5.9
2018-Jan-18 19:00N 60°28' E 026°58'1 2.3
2018-Jan-18 18:28N 60°29' E 026°57'0 0.0
2018-Jan-18 17:58N 60°29' E 026°57'0 0.0
2018-Jan-18 17:28N 60°29' E 026°57'0 0.0
2018-Jan-18 16:58N 60°29' E 026°57'0 0.0
2018-Jan-18 16:22N 60°29' E 026°57'0 0.4
2018-Jan-18 16:00N 60°29' E 026°57'0 0.6
2018-Jan-18 15:30N 60°29' E 026°57'2 3.2
2018-Jan-18 15:00N 60°28' E 026°60'4 7.1
2018-Jan-18 14:30N 60°29' E 027°07'3 6.8
2018-Jan-18 13:59N 60°32' E 027°12'0 0.0
2018-Jan-18 10:08N 60°32' E 027°12'1 3.2
2018-Jan-18 09:56N 60°31' E 027°11'2 4.2
2018-Jan-18 09:31N 60°30' E 027°09'3 5.2
2018-Jan-18 09:01N 60°27' E 027°07'2 3.1
2018-Jan-18 08:31N 60°28' E 027°04'3 5.3
2018-Jan-18 08:01N 60°27' E 026°59'4 7.2
2018-Jan-18 07:31N 60°25' E 026°54'4 7.3
2018-Jan-18 07:00N 60°23' E 026°47'4 7.2
2018-Jan-18 06:31N 60°22' E 026°41'4 7.1
2018-Jan-18 06:01N 60°20' E 026°34'4 7.0
2018-Jan-18 05:31N 60°20' E 026°27'3 6.6
2018-Jan-18 05:00N 60°21' E 026°21'4 7.9
2018-Jan-18 04:31N 60°24' E 026°17'1 1.8
2018-Jan-18 03:58N 60°25' E 026°15'0 0.0
2018-Jan-18 03:28N 60°25' E 026°15'0 0.0
2018-Jan-18 02:58N 60°25' E 026°15'0 0.0
2018-Jan-18 02:28N 60°25' E 026°15'0 0.0
2018-Jan-18 01:58N 60°25' E 026°15'0 0.0
2018-Jan-18 01:28N 60°25' E 026°15'0 0.0
2018-Jan-18 00:58N 60°25' E 026°15'0 0.0
2018-Jan-17 23:58N 60°25' E 026°15'0 0.0
2018-Jan-17 23:55N 60°25' E 026°15'  

Dump ship's entire track history